Terminal Aerodrome Forecast
Issued by NWS Birmingham, AL

Home | Current Version | Previous Version | Text Only | Print | Product List | Glossary On
Versions: 1 2 3 4 5 6 7 8 9 10 11 12 13 14 15 16 17 18 19
000
FTUS44 KBMX 282151 AAA
TAFBHM
TAF AMD
KBHM 282151Z 2822/2918 24008KT P6SM BKN250
     FM290600 21006KT P6SM VCSH BKN040
     FM291200 22005KT P6SM VCSH BKN025
     FM291500 22004KT P6SM BKN050=

USA.gov is the U.S. government's official web portal to all federal, state and local government web resources and services.